This is the latest recevied weather packets stored in our database for station/object KN6DHD. If no packets are shown the sender has not sent any weather packets the latest 1 day(s).
| Time | Temp. | Humidity | Pressure | Rain* | Wind** | Luminosity | Snow |
|---|---|---|---|---|---|---|---|
| 1778088046 | 18.33° C | 74% | 1021.4 hPa | 0 mm | - | 252 W/m² | - |
| 1778087138 | 17.22° C | 78% | 1021.4 hPa | 0 mm | - | 228 W/m² | - |
| 1778086224 | 16.67° C | 79% | 1021.5 hPa | 0 mm | - | 196 W/m² | - |
| 1778085921 | 16.67° C | 79% | 1021.2 hPa | 0 mm | - | 180 W/m² | - |
| 1778084707 | 16.11° C | 81% | 1021.3 hPa | 0 mm | - | 158 W/m² | - |
| 1778084404 | 16.67° C | 82% | 1021.3 hPa | 0 mm | - | 151 W/m² | - |
| 1778083496 | 15.56° C | 83% | 1021.2 hPa | 0 mm | - | 125 W/m² | - |
| 1778081777 | 15.56° C | 83% | 1021.2 hPa | 0 mm | - | 98 W/m² | - |
| 1778080264 | 15.56° C | 83% | 1021.2 hPa | 0 mm | - | 82 W/m² | - |
| 1778079961 | 15° C | 83% | 1021.1 hPa | 0 mm | - | 80 W/m² | - |
| 1778079052 | 14.44° C | 85% | 1021.3 hPa | 0 mm | - | 67 W/m² | - |
| 1778076027 | 14.44° C | 87% | 1021 hPa | 0 mm | - | 29 W/m² | - |
| 1778073601 | 13.89° C | 88% | 1020.6 hPa | 0 mm | - | 3 W/m² | - |
| 1778072087 | 13.89° C | 88% | 1020.4 hPa | 0 mm | - | 0 W/m² | - |
| 1778071482 | 13.89° C | 88% | 1020.2 hPa | 0 mm | - | 0 W/m² | - |
| 1778069970 | 13.89° C | 88% | 1020.3 hPa | 0 mm | - | 0 W/m² | - |
| 1778069061 | 13.89° C | 88% | 1020.2 hPa | 0 mm | - | 0 W/m² | - |
| 1778068758 | 13.89° C | 88% | 1020.3 hPa | 0 mm | - | 0 W/m² | - |
| 1778067550 | 13.89° C | 87% | 1020.2 hPa | 0 mm | - | 0 W/m² | - |
| 1778066338 | 13.89° C | 86% | 1019.8 hPa | 0 mm | - | 0 W/m² | - |
| 1778064219 | 14.44° C | 86% | 1019.5 hPa | 0 mm | - | 0 W/m² | - |
| 1778063614 | 14.44° C | 85% | 1019.5 hPa | 0 mm | - | 0 W/m² | - |
| 1778063311 | 14.44° C | 85% | 1019.5 hPa | 0 mm | - | 0 W/m² | - |
| 1778063009 | 14.44° C | 86% | 1019.6 hPa | 0 mm | - | 0 W/m² | - |
| 1778062706 | 14.44° C | 86% | 1019.7 hPa | 0 mm | - | 0 W/m² | - |
* Rain latest hour (hover to see other rain measurements)
** Current wind speed in m/s (hover to see current wind gust speed)